Hanau, Germany

8:16 AM CET on December 29, 2014 (GMT +0100)
Argonner Park | Change Station
CLOSE
Current Station
Personal Weather Station
Location: Hanau, HESSE
Elevation: 367 ft
Nearby Weather Stations

Elev 367 ft 50.11 °N, 8.96 °E | Updated 32 seconds ago

Light Snow
Light Snow Mist
24.6 °F
Feels Like 25 °F
N
0.0
Wind Variable Wind from WSW
Gusts 4.0 mph

Today
High -- | Low -- °F
--% Chance of Precip.
Yesterday
High -- | Low -- °F
Precip. -- in
8:23 AM 4:29 PM
First Quarter, 56% visible
Pressure 30.39 in
Visibility 5.0 miles
Clouds Overcast 2300 ft
Windchill 25 °F
Dew Point 22 °F
Humidity 90%
Rainfall 0.00 in
Snow Depth Not available.
UV 0 out of 12
Pollen Not available.
Air Quality Not available.
Flu Activity Not available.
SPECI ETOU 290704Z AUTO 24002KT 8000 -SN BR OVC023 M04/M05 A3039 RMK AO2 CIG 014V024

More Conditions Fewer Conditions

Pressure 30.39 in
Visibility 5.0 miles
Clouds Overcast 2300 ft
Windchill 25 °F
Dew Point 22 °F
Humidity 90%
Rainfall 0.00 in
Snow Depth Not available.
UV 0 out of 12
Pollen Not available.
Air Quality Not available.
Flu Activity Not available.
SPECI ETOU 290704Z AUTO 24002KT 8000 -SN BR OVC023 M04/M05 A3039 RMK AO2 CIG 014V024

More Conditions Fewer Conditions

10-Day Weather Forecast

Almanac

Astronomy

Dec. 29, 2014 Rise Set
Actual Time
Civil Twilight
Nautical Twilight
Astronomical Twilight
Moon
Length of Visible Light
Length of Day
Tomorrow will be .
, % of the Moon is Illuminated

Today's Extremes

Country Highs Country Lows

Community

WunderPhotos

Upload Photos

1,781,547 photos uploaded!

WunderBlogs® & News

Nearby

Air Quality

  Air Quality AQ Index Pollutant
Not available.

Snow Depth

Station Depth Elevation

Earthquake Activity

City Distance Mag. Time & Date
Minimum magnitude displayed is 2.5.

Coastal Water Temperatures

Place Temperature

Nearby Weather Stations